Time;durP1;ratioP1;P1;durP2;ratioP2;P2;SDS_P1;SDS_P2;PMS_P1;PMS_P2;Temp;Humidity;BMP_temperature;BMP_pressure;BME280_temperature;BME280_humidity;BME280_pressure;Samples;Min_cycle;Max_cycle;Signal;HPM_P1;HPM_P2
2023/03/28 00:02:15;;;;;;;2.63;1.10;;;;;;;9.96;23.81;94560.47;5021688;28;20083;-91
2023/03/28 00:04:41;;;;;;;1.60;0.95;;;;;;;9.75;23.36;94555.19;5023085;28;20029;-91
2023/03/28 00:07:06;;;;;;;2.00;0.90;;;;;;;10.14;22.56;94561.03;5021908;28;20031;-91
2023/03/28 00:09:32;;;;;;;1.40;0.60;;;;;;;10.15;22.86;94566.03;5022176;28;20025;-90
2023/03/28 00:11:57;;;;;;;1.15;0.65;;;;;;;10.56;22.54;94575.00;5021768;28;20508;-90
2023/03/28 00:14:23;;;;;;;1.25;0.70;;;;;;;9.99;22.61;94573.03;5021909;28;20043;-91
2023/03/28 00:16:49;;;;;;;6.00;1.23;;;;;;;9.47;24.60;94575.50;5024045;28;20036;-90
2023/03/28 00:19:19;;;;;;;3.35;1.00;;;;;;;9.72;24.25;94570.59;5021460;28;20056;-93
2023/03/28 00:21:47;;;;;;;2.95;1.10;;;;;;;9.54;24.45;94572.63;5023259;28;20083;-92
2023/03/28 00:24:15;;;;;;;6.07;1.05;;;;;;;10.07;23.87;94576.97;5021897;28;20120;-91
2023/03/28 00:26:42;;;;;;;2.97;0.50;;;;;;;10.29;23.43;94574.16;5039257;28;20055;-92
2023/03/28 00:32:32;;;;;;;2.88;1.00;;;;;;;10.40;23.19;94592.50;5055012;28;20031;-93
2023/03/28 00:34:58;;;;;;;3.60;0.95;;;;;;;10.13;23.19;94596.09;5013585;28;20026;-90
2023/03/28 00:37:24;;;;;;;2.03;0.85;;;;;;;10.04;23.53;94593.22;5021379;28;20024;-92
2023/03/28 00:39:49;;;;;;;3.13;0.90;;;;;;;9.80;23.89;94609.34;5023832;28;20061;-92
2023/03/28 00:42:20;;;;;;;1.48;0.95;;;;;;;10.12;23.64;94605.00;5021454;28;20064;-91
2023/03/28 00:44:52;;;;;;;2.05;1.00;;;;;;;10.02;23.72;94601.31;5023279;28;20037;-93
2023/03/28 00:47:26;;;;;;;1.67;0.95;;;;;;;9.87;24.01;94614.34;5021457;28;20033;-92
2023/03/28 00:50:12;;;;;;;2.10;1.00;;;;;;;10.36;23.43;94607.94;5040194;28;20120;-92
2023/03/28 00:52:45;;;;;;;4.72;1.08;;;;;;;9.70;23.83;94602.25;5037529;28;20029;-91
2023/03/28 00:55:25;;;;;;;2.15;0.70;;;;;;;9.95;24.19;94611.25;5021682;28;20308;-91
2023/03/28 00:57:51;;;;;;;3.08;0.88;;;;;;;9.97;23.28;94608.34;5023465;28;20457;-92
2023/03/28 01:00:17;;;;;;;1.95;1.00;;;;;;;9.95;23.36;94615.69;5021028;28;20021;-91
2023/03/28 01:02:49;;;;;;;0.95;0.68;;;;;;;10.04;23.57;94616.78;5022775;28;20018;-91
2023/03/28 01:05:15;;;;;;;3.10;1.00;;;;;;;10.11;23.44;94609.44;5021528;28;20033;-91
2023/03/28 01:07:44;;;;;;;5.22;1.00;;;;;;;9.71;23.85;94614.28;5022046;28;20082;-92
2023/03/28 01:10:11;;;;;;;2.95;1.10;;;;;;;9.68;23.75;94617.41;5037448;28;20434;-91
2023/03/28 01:12:36;;;;;;;2.60;0.80;;;;;;;9.80;24.13;94617.19;5021261;28;20108;-91
2023/03/28 01:15:03;;;;;;;2.13;0.88;;;;;;;9.58;23.97;94619.97;5020847;28;20120;-91
2023/03/28 01:17:29;;;;;;;2.90;0.90;;;;;;;9.87;23.80;94619.59;5020749;28;20128;-91
2023/03/28 01:20:38;;;;;;;1.42;0.80;;;;;;;9.65;23.81;94622.38;5023640;28;20120;-91
2023/03/28 01:23:16;;;;;;;0.77;0.70;;;;;;;10.23;24.36;94627.56;5007685;28;20129;-91
2023/03/28 01:25:44;;;;;;;1.25;0.77;;;;;;;9.94;23.57;94629.81;5038152;28;20033;-91
2023/03/28 01:28:48;;;;;;;1.20;0.80;;;;;;;9.59;23.45;94619.75;5036886;28;20083;-91
2023/03/28 01:31:14;;;;;;;4.43;0.90;;;;;;;9.69;23.72;94628.69;5006958;28;20037;-90
2023/03/28 01:34:00;;;;;;;2.35;0.80;;;;;;;10.04;23.97;94635.91;5037779;28;20025;-91
2023/03/28 01:36:51;;;;;;;0.80;0.60;;;;;;;9.96;23.34;94627.72;5036760;28;20442;-92
2023/03/28 01:39:26;;;;;;;3.47;0.80;;;;;;;9.92;23.94;94637.13;5040173;28;20393;-93
2023/03/28 01:42:10;;;;;;;1.98;1.15;;;;;;;9.87;24.17;94635.28;5039874;28;20029;-90
2023/03/28 01:44:52;;;;;;;;;;;;;;;10.16;23.80;94637.47;5037170;28;20040;-91
2023/03/28 01:47:48;;;;;;;1.58;0.80;;;;;;;9.77;24.82;94636.03;5020519;28;19962;-91
2023/03/28 01:50:37;;;;;;;4.50;1.10;;;;;;;9.19;24.78;94642.78;5021586;28;20075;-91
2023/03/28 01:53:09;;;;;;;1.85;0.80;;;;;;;9.46;25.00;94630.66;5029239;28;20068;-92
2023/03/28 01:55:40;;;;;;;2.72;0.85;;;;;;;9.55;25.26;94636.19;5039855;28;20082;-91
2023/03/28 01:58:36;;;;;;;1.83;1.00;;;;;;;9.27;25.67;94645.97;5020010;28;20029;-91
2023/03/28 02:01:06;;;;;;;3.58;1.17;;;;;;;9.32;25.22;94633.72;4953203;28;20094;-90
2023/03/28 02:03:34;;;;;;;3.67;0.90;;;;;;;9.08;25.15;94638.53;5023358;28;20025;-91
2023/03/28 02:06:03;;;;;;;1.77;0.80;;;;;;;9.08;25.56;94629.88;5023005;28;20123;-92
2023/03/28 02:08:31;;;;;;;3.22;1.20;;;;;;;9.28;24.59;94642.31;5023112;28;20036;-91
2023/03/28 02:10:57;;;;;;;1.23;0.80;;;;;;;9.40;23.82;94627.22;5022991;28;20029;-90
2023/03/28 02:13:35;;;;;;;2.20;0.90;;;;;;;9.63;24.03;94633.09;5022908;28;20048;-91
2023/03/28 02:16:01;;;;;;;2.20;1.00;;;;;;;9.46;23.88;94628.03;5022894;28;20461;-90
2023/03/28 02:18:31;;;;;;;4.47;0.80;;;;;;;9.64;23.72;94629.44;5022910;28;20576;-90
2023/03/28 02:21:00;;;;;;;1.88;0.80;;;;;;;9.65;23.52;94627.59;5022993;28;20021;-90
2023/03/28 02:23:31;;;;;;;2.85;1.27;;;;;;;9.58;23.86;94622.59;5019404;28;20021;-90
2023/03/28 02:25:56;;;;;;;7.35;1.92;;;;;;;9.39;23.88;94619.63;5019601;28;20036;-91
2023/03/28 02:28:23;;;;;;;10.60;2.38;;;;;;;9.30;24.40;94624.53;5019568;28;20025;-90
2023/03/28 02:30:50;;;;;;;2.92;1.10;;;;;;;9.25;24.42;94633.13;5021526;28;20033;-90
2023/03/28 02:33:33;;;;;;;1.90;1.00;;;;;;;9.31;24.09;94623.50;5019678;28;20028;-90
2023/03/28 02:36:29;;;;;;;1.95;1.08;;;;;;;9.51;23.93;94622.06;5039634;28;20028;-89
2023/03/28 02:39:28;;;;;;;1.05;0.70;;;;;;;9.57;23.89;94626.25;5039273;28;20029;-90
2023/03/28 02:42:18;;;;;;;1.90;0.93;;;;;;;9.19;24.58;94629.72;5022160;28;20119;-91
2023/03/28 02:45:05;;;;;;;0.80;0.57;;;;;;;9.43;23.85;94625.94;5040888;28;20331;-90
2023/03/28 02:47:37;;;;;;;1.58;0.90;;;;;;;9.33;24.66;94626.66;5039693;28;20033;-91
2023/03/28 02:50:26;;;;;;;1.88;1.02;;;;;;;9.21;23.85;94636.53;5026774;28;20032;-92
2023/03/28 02:53:12;;;;;;;1.77;0.95;;;;;;;9.28;24.63;94629.22;5026710;28;20064;-90
2023/03/28 02:56:00;;;;;;;1.45;0.88;;;;;;;9.17;26.11;94631.00;5023763;28;20040;-90
2023/03/28 03:05:10;;;;;;;1.35;0.73;;;;;;;8.20;28.15;94642.94;5060219;28;20039;-89
2023/03/28 03:07:39;;;;;;;1.10;0.70;;;;;;;7.75;27.67;94645.56;5023677;28;20366;-92
2023/03/28 03:10:06;;;;;;;2.10;0.70;;;;;;;8.03;28.89;94648.22;5023206;28;20029;-89
2023/03/28 03:12:33;;;;;;;1.10;0.73;;;;;;;7.86;26.54;94645.69;5023179;28;20021;-90
2023/03/28 03:14:59;;;;;;;1.77;0.90;;;;;;;7.89;28.07;94660.84;5026502;28;20078;-90
2023/03/28 03:17:26;;;;;;;3.25;1.02;;;;;;;7.90;27.41;94663.22;5026434;28;20021;-91
2023/03/28 03:19:51;;;;;;;1.38;0.95;;;;;;;7.83;26.71;94667.03;5026173;28;20028;-90
2023/03/28 03:22:17;;;;;;;1.13;0.73;;;;;;;8.04;26.72;94668.06;5022705;28;20025;-93
2023/03/28 03:24:43;;;;;;;1.98;0.90;;;;;;;8.04;27.00;94665.47;5024271;28;20029;-91
2023/03/28 03:27:08;;;;;;;1.45;0.80;;;;;;;8.18;28.93;94666.66;5039285;28;20196;-90
2023/03/28 03:29:34;;;;;;;1.77;0.90;;;;;;;7.72;28.23;94672.13;5023105;28;20029;-91
2023/03/28 03:31:59;;;;;;;4.07;0.95;;;;;;;7.82;28.13;94670.69;5022435;28;20032;-90
2023/03/28 03:34:25;;;;;;;1.88;0.70;;;;;;;7.97;27.92;94677.91;5022364;28;20029;-90
2023/03/28 03:36:53;;;;;;;1.52;0.90;;;;;;;7.90;27.53;94683.31;5024778;28;20056;-90
2023/03/28 03:39:19;;;;;;;1.65;0.82;;;;;;;7.71;27.90;94682.81;5022492;28;20021;-90
2023/03/28 03:41:44;;;;;;;4.68;0.90;;;;;;;7.88;25.76;94685.34;5023972;28;20032;-91
2023/03/28 03:44:10;;;;;;;1.17;0.80;;;;;;;8.06;25.34;94681.66;5010173;28;20423;-89
2023/03/28 03:46:35;;;;;;;2.42;0.90;;;;;;;8.24;25.35;94669.31;5003241;28;20435;-89
2023/03/28 03:49:01;;;;;;;1.27;0.93;;;;;;;8.34;25.13;94685.09;5005709;28;20308;-89
2023/03/28 03:51:26;;;;;;;1.38;1.00;;;;;;;8.37;25.00;94681.22;5021155;28;20068;-90
2023/03/28 03:53:52;;;;;;;1.50;0.88;;;;;;;8.35;24.88;94679.66;5025389;28;20021;-90
2023/03/28 03:56:18;;;;;;;2.28;1.00;;;;;;;8.29;24.80;94685.84;5020853;28;20088;-92
2023/03/28 03:58:44;;;;;;;2.20;0.85;;;;;;;8.48;24.95;94690.75;5039994;28;20025;-89
2023/03/28 04:01:12;;;;;;;2.67;1.05;;;;;;;8.04;24.99;94692.34;5022063;28;20025;-91
2023/03/28 04:03:40;;;;;;;2.45;1.00;;;;;;;8.48;24.49;94694.13;5022952;28;20017;-90
2023/03/28 04:06:05;;;;;;;2.42;0.90;;;;;;;8.42;24.80;94700.34;5021423;28;20025;-89
2023/03/28 04:08:31;;;;;;;2.03;0.88;;;;;;;8.43;25.92;94701.13;5022074;28;20028;-91
2023/03/28 04:10:57;;;;;;;2.38;0.93;;;;;;;7.63;28.85;94710.84;5021538;28;20032;-89
2023/03/28 04:13:23;;;;;;;2.40;1.23;;;;;;;8.02;27.84;94714.50;5038135;28;20017;-89
2023/03/28 04:15:49;;;;;;;2.70;0.85;;;;;;;7.77;28.76;94719.16;5024463;28;20138;-89
2023/03/28 04:18:16;;;;;;;2.03;1.00;;;;;;;7.64;28.95;94727.31;5021979;28;20025;-90
2023/03/28 04:20:43;;;;;;;7.45;1.30;;;;;;;7.44;28.01;94728.56;5023064;28;20021;-91
2023/03/28 04:23:09;;;;;;;1.60;0.93;;;;;;;7.38;28.74;94720.91;5021501;28;20423;-90
2023/03/28 04:25:34;;;;;;;2.15;1.10;;;;;;;6.97;28.13;94715.84;5021629;28;20082;-91
2023/03/28 04:28:00;;;;;;;1.85;1.00;;;;;;;6.88;27.60;94720.66;5021431;28;20195;-92
2023/03/28 04:30:26;;;;;;;2.05;1.00;;;;;;;7.10;27.51;94733.00;5021430;28;20028;-91
2023/03/28 04:32:53;;;;;;;1.98;0.93;;;;;;;7.31;26.71;94727.09;5024123;28;20018;-90
2023/03/28 04:35:19;;;;;;;1.67;1.08;;;;;;;7.46;27.07;94731.75;5015955;28;20427;-89
2023/03/28 04:37:46;;;;;;;2.17;0.98;;;;;;;7.35;28.66;94735.22;5019630;28;20029;-88
2023/03/28 04:40:15;;;;;;;1.77;0.82;;;;;;;7.45;26.93;94740.56;5020699;28;20022;-90
2023/03/28 04:42:40;;;;;;;1.67;0.70;;;;;;;7.54;26.89;94738.38;5022122;28;20136;-89
2023/03/28 04:45:07;;;;;;;2.47;0.90;;;;;;;7.68;26.27;94733.63;5037285;28;20065;-89
2023/03/28 04:47:33;;;;;;;1.10;0.68;;;;;;;7.40;26.31;94727.47;5021019;28;20021;-90
2023/03/28 04:49:59;;;;;;;2.28;0.93;;;;;;;7.59;26.38;94735.84;5037389;28;20328;-90
2023/03/28 04:52:25;;;;;;;1.85;1.00;;;;;;;7.86;26.05;94729.16;5020956;28;20024;-89
2023/03/28 04:54:50;;;;;;;2.60;0.98;;;;;;;7.53;25.93;94733.41;5039716;28;20025;-89
2023/03/28 04:57:16;;;;;;;1.73;0.88;;;;;;;7.54;28.11;94730.56;5021136;28;20357;-91
2023/03/28 04:59:42;;;;;;;2.03;1.20;;;;;;;7.06;29.37;94743.13;5038283;28;20100;-90
2023/03/28 05:02:08;;;;;;;2.55;1.10;;;;;;;7.25;29.37;94748.09;5020669;28;20021;-90
2023/03/28 05:04:34;;;;;;;2.00;0.90;;;;;;;7.08;28.17;94746.28;5018022;28;20179;-89
2023/03/28 05:06:59;;;;;;;4.47;1.08;;;;;;;6.79;27.95;94756.72;5015805;28;20424;-89
2023/03/28 05:09:25;;;;;;;2.45;1.27;;;;;;;7.31;28.70;94753.16;5001579;28;20026;-88
2023/03/28 05:11:50;;;;;;;1.67;0.90;;;;;;;7.31;27.83;94762.78;5019684;28;20331;-89
2023/03/28 05:14:16;;;;;;;1.10;0.80;;;;;;;6.85;28.80;94760.97;5017191;28;20112;-89
2023/03/28 05:16:41;;;;;;;2.88;0.80;;;;;;;7.10;27.55;94774.69;5018030;28;20022;-89
2023/03/28 05:19:08;;;;;;;1.30;0.90;;;;;;;7.06;29.33;94782.19;5020197;28;20304;-89
2023/03/28 05:21:34;;;;;;;1.30;0.80;;;;;;;7.15;30.88;94785.22;5019983;28;20119;-89
2023/03/28 05:24:00;;;;;;;1.80;0.90;;;;;;;7.22;28.88;94791.84;5036519;28;20396;-89
2023/03/28 05:26:26;;;;;;;2.05;0.90;;;;;;;7.41;27.50;94793.44;5020374;28;20120;-89
2023/03/28 05:32:14;;;;;;;3.15;0.95;;;;;;;7.44;28.86;94796.34;5057431;28;20100;-89
2023/03/28 05:34:40;;;;;;;3.72;1.10;;;;;;;7.54;26.54;94803.56;5037648;28;20030;-89
2023/03/28 05:37:05;;;;;;;1.98;0.90;;;;;;;7.61;26.97;94801.59;5020189;28;20167;-89
2023/03/28 05:39:30;;;;;;;1.77;0.90;;;;;;;7.87;27.58;94807.19;5020415;28;20095;-89
2023/03/28 05:41:56;;;;;;;1.00;0.80;;;;;;;8.03;26.57;94812.63;5039657;28;20035;-89
2023/03/28 05:44:21;;;;;;;1.88;1.00;;;;;;;8.09;26.60;94810.88;5036493;28;20033;-90
2023/03/28 05:46:47;;;;;;;5.47;0.88;;;;;;;8.25;26.50;94820.50;5038253;28;20431;-91
2023/03/28 05:49:13;;;;;;;5.25;1.10;;;;;;;8.28;26.88;94824.44;5020001;28;20029;-90
2023/03/28 05:51:38;;;;;;;1.92;0.80;;;;;;;8.42;27.01;94822.28;5036990;28;20338;-90
2023/03/28 05:54:04;;;;;;;1.92;0.80;;;;;;;8.28;27.41;94827.06;5036059;28;20026;-90
2023/03/28 05:56:34;;;;;;;1.27;0.80;;;;;;;8.69;26.30;94829.41;5020117;28;20026;-91
2023/03/28 05:58:59;;;;;;;2.83;0.80;;;;;;;8.60;25.84;94834.28;5040097;28;20056;-89
2023/03/28 06:01:26;;;;;;;2.92;0.70;;;;;;;8.54;25.61;94830.81;5020004;28;20030;-90
2023/03/28 06:03:52;;;;;;;1.88;1.00;;;;;;;9.21;25.75;94829.97;5022458;28;20037;-91
2023/03/28 06:06:18;;;;;;;1.23;0.80;;;;;;;9.30;26.01;94829.28;5019952;28;20033;-91
2023/03/28 06:08:43;;;;;;;5.22;1.05;;;;;;;9.35;25.42;94839.00;5021079;28;20346;-91
2023/03/28 06:11:09;;;;;;;2.45;1.00;;;;;;;9.47;25.30;94834.41;5019536;28;20026;-90
2023/03/28 06:13:34;;;;;;;3.70;1.00;;;;;;;9.39;26.14;94839.28;5019734;28;20025;-90
2023/03/28 06:16:00;;;;;;;2.63;0.90;;;;;;;9.79;26.18;94842.50;5019501;28;20029;-92
2023/03/28 06:18:25;;;;;;;3.15;1.10;;;;;;;9.72;25.55;94838.25;5018809;28;20025;-91
2023/03/28 06:20:51;;;;;;;2.08;0.90;;;;;;;9.71;27.00;94849.78;5022083;28;20435;-91
2023/03/28 06:23:16;;;;;;;1.58;0.65;;;;;;;9.69;26.52;94853.69;5019631;28;20026;-90
2023/03/28 06:25:42;;;;;;;1.30;0.68;;;;;;;9.96;26.64;94856.25;5020723;28;20033;-91
2023/03/28 06:28:08;;;;;;;1.48;0.73;;;;;;;10.04;26.58;94855.00;5019446;28;20095;-91
2023/03/28 06:30:33;;;;;;;3.60;0.73;;;;;;;9.97;26.65;94860.44;5019349;28;20034;-91
2023/03/28 06:33:00;;;;;;;1.13;0.80;;;;;;;10.04;27.46;94857.63;5019357;28;20025;-89
2023/03/28 06:35:25;;;;;;;1.50;0.80;;;;;;;10.33;25.93;94857.28;5035732;28;20458;-89
2023/03/28 06:37:51;;;;;;;2.30;0.93;;;;;;;10.45;26.26;94860.53;5022077;28;20021;-90
2023/03/28 06:40:16;;;;;;;2.72;0.88;;;;;;;9.94;26.24;94853.09;5019239;28;20025;-90
2023/03/28 06:42:42;;;;;;;1.85;0.80;;;;;;;10.02;28.07;94862.31;5036752;28;20025;-91
2023/03/28 06:45:08;;;;;;;1.42;0.80;;;;;;;10.28;27.97;94862.50;5022591;28;20040;-90
2023/03/28 06:47:34;;;;;;;2.83;0.95;;;;;;;10.25;27.18;94869.00;5022889;28;20414;-90
2023/03/28 06:49:59;;;;;;;3.28;0.90;;;;;;;10.37;27.97;94873.28;5018913;28;20063;-91
2023/03/28 06:52:25;;;;;;;3.17;0.80;;;;;;;10.77;28.10;94877.19;5019600;28;20391;-91
2023/03/28 06:54:50;;;;;;;1.42;0.90;;;;;;;10.94;28.07;94871.72;5021661;28;20056;-91
2023/03/28 06:57:16;;;;;;;4.47;0.90;;;;;;;10.88;27.79;94886.66;5035629;28;20037;-91
2023/03/28 06:59:41;;;;;;;2.58;0.90;;;;;;;11.09;28.08;94886.75;5020354;28;20025;-91
2023/03/28 07:02:09;;;;;;;1.42;0.70;;;;;;;11.42;28.38;94886.59;5019059;28;20106;-91
2023/03/28 07:04:35;;;;;;;0.70;0.60;;;;;;;11.32;28.43;94895.19;5019351;28;20034;-90
2023/03/28 07:07:00;;;;;;;1.63;0.75;;;;;;;11.16;29.95;94900.41;5056254;28;20048;-91
2023/03/28 07:09:26;;;;;;;3.17;1.00;;;;;;;11.27;28.29;94903.06;5019362;28;20025;-91
2023/03/28 07:11:52;;;;;;;1.55;0.80;;;;;;;10.75;30.29;94906.25;5021600;28;20030;-90
2023/03/28 07:14:17;;;;;;;2.30;0.88;;;;;;;10.94;30.35;94910.28;5019393;28;20025;-90
2023/03/28 07:16:43;;;;;;;1.33;0.90;;;;;;;10.76;28.48;94914.94;5020369;28;20029;-90
2023/03/28 07:19:08;;;;;;;2.28;0.68;;;;;;;11.35;27.67;94915.69;5019290;28;20033;-90
2023/03/28 07:21:34;;;;;;;1.52;0.80;;;;;;;11.31;26.62;94919.84;5019559;28;20025;-89
2023/03/28 07:24:00;;;;;;;2.60;0.90;;;;;;;11.22;27.47;94926.66;5035405;28;20029;-91
2023/03/28 07:26:26;;;;;;;1.85;0.80;;;;;;;11.40;26.27;94926.19;5018984;28;20453;-91
2023/03/28 07:28:53;;;;;;;4.10;0.80;;;;;;;11.84;28.28;94919.72;5022176;28;20095;-90
2023/03/28 07:31:20;;;;;;;3.22;1.10;;;;;;;11.50;26.17;94919.41;5022692;28;20032;-90
2023/03/28 07:33:47;;;;;;;1.67;0.77;;;;;;;11.74;26.53;94925.72;5040370;28;20021;-91
2023/03/28 07:36:16;;;;;;;2.25;0.80;;;;;;;12.04;27.63;94933.94;5022497;28;20032;-91
2023/03/28 07:38:41;;;;;;;2.38;0.93;;;;;;;11.81;26.05;94943.06;5023799;28;20029;-89
2023/03/28 07:41:07;;;;;;;4.68;0.75;;;;;;;11.71;28.18;94942.00;5038755;28;20025;-91
2023/03/28 07:43:32;;;;;;;4.03;1.10;;;;;;;11.70;29.75;94947.53;5038302;28;20021;-90
2023/03/28 07:45:59;;;;;;;3.42;0.90;;;;;;;12.23;28.17;94946.53;5022144;28;20033;-90
2023/03/28 07:48:25;;;;;;;3.63;1.05;;;;;;;12.09;29.29;94956.78;5022191;28;20033;-91
2023/03/28 07:50:50;;;;;;;2.17;0.90;;;;;;;12.37;29.32;94944.19;5024260;28;20116;-89
2023/03/28 07:53:16;;;;;;;2.10;1.08;;;;;;;11.97;30.15;94955.16;5022441;28;20334;-91
2023/03/28 07:55:42;;;;;;;1.52;0.75;;;;;;;12.40;28.31;94956.78;5023410;28;20026;-90
2023/03/28 07:58:08;;;;;;;2.08;1.02;;;;;;;12.65;27.53;94957.81;5022407;28;20033;-91
2023/03/28 08:00:34;;;;;;;2.78;0.90;;;;;;;12.57;27.50;94967.81;5022367;28;20390;-90
2023/03/28 08:02:59;;;;;;;4.20;0.80;;;;;;;12.67;27.06;94971.47;5021834;28;20120;-91
2023/03/28 08:05:25;;;;;;;1.50;0.82;;;;;;;12.84;27.84;94971.97;5021691;28;20026;-90
2023/03/28 08:07:52;;;;;;;0.73;0.60;;;;;;;12.69;22.69;94970.16;5024484;28;20036;-91
2023/03/28 08:10:18;;;;;;;1.35;0.90;;;;;;;12.92;25.25;94972.50;5021863;28;20029;-91
2023/03/28 08:12:43;;;;;;;1.85;0.80;;;;;;;12.54;26.44;94980.69;5023246;28;20435;-90
2023/03/28 08:15:10;;;;;;;2.42;0.75;;;;;;;12.76;26.85;94980.38;5021598;28;20030;-91
2023/03/28 08:17:35;;;;;;;3.80;0.98;;;;;;;13.15;25.72;94982.41;5021860;28;20347;-90
2023/03/28 08:20:01;;;;;;;1.15;0.77;;;;;;;13.42;26.11;94991.03;5021707;28;20029;-90
2023/03/28 08:22:26;;;;;;;7.53;0.80;;;;;;;13.28;25.50;94988.16;5021404;28;20435;-90
2023/03/28 08:24:52;;;;;;;3.08;1.35;;;;;;;13.59;24.99;94987.28;5024173;28;20036;-92
2023/03/28 08:27:17;;;;;;;1.40;0.70;;;;;;;13.45;25.18;94989.72;5021377;28;20087;-91
2023/03/28 08:29:43;;;;;;;1.90;0.95;;;;;;;13.61;24.65;94995.72;5022606;28;20037;-91
2023/03/28 08:32:08;;;;;;;3.75;0.85;;;;;;;13.74;24.96;94999.59;5021528;28;20037;-91
2023/03/28 08:34:34;;;;;;;2.25;0.80;;;;;;;14.06;24.97;94995.72;5021305;28;20496;-90
2023/03/28 08:37:00;;;;;;;1.50;0.70;;;;;;;14.02;24.31;95005.22;5037470;28;20025;-91
2023/03/28 08:39:25;;;;;;;3.30;0.90;;;;;;;13.61;20.28;95007.00;5021133;28;20025;-90
2023/03/28 08:42:19;;;;;;;1.98;0.65;;;;;;;13.93;21.18;94999.75;5023234;28;20075;-89
2023/03/28 08:45:09;;;;;;;2.03;0.70;;;;;;;13.96;23.63;95015.00;5039310;28;20083;-89
2023/03/28 08:47:52;;;;;;;1.08;0.68;;;;;;;14.46;21.14;95009.66;5038042;28;20131;-92
2023/03/28 08:50:25;;;;;;;1.45;0.60;;;;;;;14.60;20.73;95006.41;5037430;28;20131;-90
2023/03/28 08:52:50;;;;;;;1.40;0.52;;;;;;;14.32;20.30;95008.72;5023724;28;20029;-90
2023/03/28 08:55:37;;;;;;;2.10;0.80;;;;;;;14.38;17.98;95002.34;5020986;28;20029;-91
2023/03/28 08:58:03;;;;;;;1.30;0.70;;;;;;;14.24;19.30;95005.63;5037001;28;20029;-90
2023/03/28 09:00:31;;;;;;;1.83;0.93;;;;;;;13.39;18.55;95008.13;5036836;28;20316;-91
2023/03/28 09:02:57;;;;;;;1.00;0.60;;;;;;;13.21;19.68;95012.13;5020431;28;20132;-92
2023/03/28 09:05:42;;;;;;;1.17;0.65;;;;;;;12.68;18.86;95002.75;5020891;28;20114;-91
2023/03/28 09:08:13;;;;;;;1.23;0.75;;;;;;;13.82;17.98;95010.34;5020464;28;20041;-91
2023/03/28 09:10:59;;;;;;;2.20;0.95;;;;;;;13.71;19.22;95008.84;5022378;28;20053;-89
2023/03/28 09:13:33;;;;;;;1.50;0.77;;;;;;;14.02;20.00;95013.13;5058090;28;20063;-92
2023/03/28 09:16:22;;;;;;;1.08;0.70;;;;;;;12.91;20.25;94981.41;5057680;28;20113;-90
2023/03/28 09:19:09;;;;;;;1.50;0.77;;;;;;;13.38;19.89;95001.28;5039060;28;20037;-90
2023/03/28 09:21:57;;;;;;;3.00;0.80;;;;;;;13.34;18.67;95000.25;5020575;28;20030;-91
2023/03/28 09:24:43;;;;;;;3.30;0.60;;;;;;;14.39;19.46;95012.63;5036725;28;20033;-91
2023/03/28 09:27:14;;;;;;;1.65;0.70;;;;;;;15.03;20.18;95003.16;5020246;28;20025;-91
2023/03/28 09:29:41;;;;;;;1.75;0.57;;;;;;;15.13;18.63;95001.19;5021578;28;20040;-91
2023/03/28 09:32:24;;;;;;;1.45;0.77;;;;;;;14.94;16.83;95000.34;5036417;28;20430;-89
2023/03/28 09:34:50;;;;;;;1.08;0.68;;;;;;;15.01;19.30;94998.13;5023055;28;20346;-90
2023/03/28 09:37:36;;;;;;;1.85;1.00;;;;;;;15.17;19.18;95008.53;5019847;28;20041;-91
2023/03/28 09:40:20;;;;;;;1.52;0.70;;;;;;;14.93;16.86;95006.69;5036104;28;20029;-91
2023/03/28 09:43:10;;;;;;;1.58;0.80;;;;;;;14.39;17.08;95006.56;5021848;28;20030;-90
2023/03/28 09:46:06;;;;;;;1.90;0.75;;;;;;;15.05;20.04;95001.78;5020411;28;20127;-91
2023/03/28 09:48:34;;;;;;;0.80;0.73;;;;;;;14.47;19.46;95002.56;5036103;28;20025;-92
2023/03/28 09:51:00;;;;;;;1.40;0.70;;;;;;;14.18;19.65;94995.38;5039482;28;20438;-89
2023/03/28 09:53:31;;;;;;;1.17;0.75;;;;;;;15.29;19.05;95005.53;5023068;28;20025;-89
2023/03/28 09:56:02;;;;;;;1.35;0.70;;;;;;;15.06;18.33;95000.75;5023382;28;20394;-91
2023/03/28 09:58:27;;;;;;;1.10;0.80;;;;;;;15.30;18.23;95005.22;5023692;28;20035;-89
2023/03/28 10:00:53;;;;;;;1.75;0.60;;;;;;;15.71;16.70;95005.81;5023496;28;20119;-90
2023/03/28 10:03:29;;;;;;;1.20;0.70;;;;;;;15.89;18.31;95007.72;5019661;28;20034;-90
2023/03/28 10:05:59;;;;;;;2.53;0.80;;;;;;;15.31;16.77;95012.06;5023221;28;20059;-90
2023/03/28 10:08:33;;;;;;;1.85;0.90;;;;;;;13.82;16.85;95030.63;5019683;28;20116;-92
2023/03/28 10:10:59;;;;;;;2.05;0.88;;;;;;;14.76;19.08;95013.13;5020045;28;20039;-91
2023/03/28 10:13:25;;;;;;;1.63;0.80;;;;;;;15.12;18.31;95015.44;5036048;28;20033;-91
2023/03/28 10:15:50;;;;;;;3.75;1.00;;;;;;;15.44;19.75;95017.75;5021928;28;20072;-90
2023/03/28 10:18:20;;;;;;;1.75;1.08;;;;;;;15.49;18.80;95026.41;5035805;28;20065;-91
2023/03/28 10:20:48;;;;;;;2.60;0.90;;;;;;;15.86;18.03;95042.59;5021334;28;20037;-91
2023/03/28 10:23:14;;;;;;;1.80;0.80;;;;;;;15.39;19.07;95029.94;5035717;28;20406;-90
2023/03/28 10:25:44;;;;;;;1.67;0.70;;;;;;;16.09;17.38;95032.31;5021028;28;20033;-91
2023/03/28 10:28:26;;;;;;;1.52;0.70;;;;;;;16.20;18.29;95025.00;5019540;28;20041;-90
2023/03/28 10:30:54;;;;;;;4.18;0.80;;;;;;;15.87;18.19;95028.31;5022440;28;20030;-91
2023/03/28 10:33:25;;;;;;;1.13;0.68;;;;;;;15.89;16.93;95043.91;5035652;28;20025;-90
2023/03/28 10:36:06;;;;;;;1.65;0.63;;;;;;;15.60;18.02;95034.22;5038124;28;20030;-90
2023/03/28 10:38:37;;;;;;;2.03;0.90;;;;;;;14.54;19.31;95032.00;5019211;28;20068;-90
2023/03/28 10:41:08;;;;;;;1.55;0.80;;;;;;;13.73;18.33;95032.25;5035784;28;20029;-90
2023/03/28 10:43:38;;;;;;;1.55;0.75;;;;;;;15.90;19.95;95037.56;5019555;28;20029;-90
2023/03/28 10:46:07;;;;;;;1.10;0.73;;;;;;;16.28;17.79;95042.06;5019141;28;20427;-90
2023/03/28 10:48:35;;;;;;;0.98;0.80;;;;;;;16.17;17.47;95039.56;5019333;28;20026;-90
2023/03/28 10:51:07;;;;;;;0.95;0.65;;;;;;;16.13;18.00;95033.28;5019327;28;20025;-91
2023/03/28 10:53:57;;;;;;;1.48;0.60;;;;;;;16.67;19.08;95038.31;5019737;28;20026;-90
2023/03/28 10:56:40;;;;;;;2.28;0.80;;;;;;;16.88;17.75;95030.84;5035739;28;20129;-92
2023/03/28 10:59:15;;;;;;;1.60;0.88;;;;;;;16.62;17.01;95028.59;5038963;28;20029;-90
2023/03/28 11:01:53;;;;;;;1.35;0.90;;;;;;;17.16;18.71;95028.28;5038864;28;20414;-92
2023/03/28 11:04:28;;;;;;;1.65;0.90;;;;;;;17.39;17.50;95020.41;5037084;28;20029;-91
2023/03/28 11:06:57;;;;;;;2.33;0.90;;;;;;;16.93;17.40;95030.75;5059905;28;20120;-91
2023/03/28 11:09:47;;;;;;;2.88;1.05;;;;;;;17.55;18.25;95026.22;5039261;28;20084;-91
2023/03/28 11:12:44;;;;;;;1.60;0.82;;;;;;;17.22;19.54;95018.38;5023094;28;20057;-90
2023/03/28 11:15:15;;;;;;;1.05;0.93;;;;;;;15.74;17.88;95023.72;5039170;28;20029;-91
2023/03/28 11:18:02;;;;;;;1.50;0.88;;;;;;;15.53;17.63;95021.34;5023636;28;20328;-91
2023/03/28 11:20:33;;;;;;;1.25;0.80;;;;;;;15.88;19.50;95019.31;5038909;28;20427;-92
2023/03/28 11:22:58;;;;;;;1.88;0.90;;;;;;;16.45;18.36;95026.47;5042065;28;20028;-91
2023/03/28 11:25:37;;;;;;;1.38;0.85;;;;;;;15.88;17.28;95037.03;5042430;28;20388;-92
2023/03/28 11:28:58;;;;;;;1.10;0.80;;;;;;;15.97;17.54;95035.34;5042430;28;20457;-91
2023/03/28 11:31:36;;;;;;;1.40;0.98;;;;;;;15.48;19.22;95016.09;5042079;28;20341;-90
2023/03/28 11:34:25;;;;;;;0.90;0.65;;;;;;;17.03;18.62;95021.09;5042070;28;20076;-90
2023/03/28 11:36:52;;;;;;;2.95;1.00;;;;;;;15.99;19.70;95017.34;5025414;28;20381;-89
2023/03/28 11:39:41;;;;;;;0.60;0.52;;;;;;;17.87;18.82;95031.69;5038740;28;20123;-90
2023/03/28 11:42:13;;;;;;;1.25;0.82;;;;;;;16.64;16.31;95015.88;5022614;28;20052;-90
2023/03/28 11:44:53;;;;;;;0.88;0.70;;;;;;;16.31;17.92;95015.06;5021643;28;20029;-91
2023/03/28 11:47:50;;;;;;;0.75;0.63;;;;;;;16.82;16.94;95008.97;5002805;28;20030;-89
2023/03/28 11:50:18;;;;;;;3.00;1.02;;;;;;;17.63;17.25;95008.84;5018780;28;20343;-89
2023/03/28 11:52:58;;;;;;;2.92;0.73;;;;;;;18.25;19.11;94999.59;5004193;28;20022;-90
2023/03/28 11:55:26;;;;;;;1.15;0.70;;;;;;;17.85;17.44;95016.06;5018490;28;20034;-91
2023/03/28 12:01:17;;;;;;;1.77;0.90;;;;;;;17.58;18.91;94998.34;5039150;28;20151;-91
2023/03/28 12:03:53;;;;;;;1.70;0.80;;;;;;;18.27;18.27;95004.59;5003863;28;20062;-91
2023/03/28 12:06:25;;;;;;;1.30;0.73;;;;;;;17.95;17.34;95004.47;5018393;28;20069;-92
2023/03/28 12:09:23;;;;;;;0.55;0.50;;;;;;;18.30;16.24;94999.50;5005168;28;20026;-90
2023/03/28 12:12:07;;;;;;;1.05;0.70;;;;;;;18.33;16.32;94995.44;5020413;28;20030;-91